createdAt,value
2024-05-09T00:00:30.552Z,7.60
2024-05-09T00:01:24.029Z,7.30
2024-05-09T00:02:24.186Z,7.00
2024-05-09T00:03:24.052Z,8.70
2024-05-09T00:04:23.969Z,7.90
2024-05-09T00:05:24.089Z,9.60
2024-05-09T00:06:23.950Z,6.90
2024-05-09T00:07:23.945Z,9.00
2024-05-09T00:08:24.010Z,8.90
2024-05-09T00:09:23.943Z,10.20
2024-05-09T00:10:32.662Z,8.30
2024-05-09T00:11:24.046Z,6.50
2024-05-09T00:12:23.976Z,8.20
2024-05-09T00:13:23.882Z,8.10
2024-05-09T00:14:23.969Z,7.80
2024-05-09T00:15:23.886Z,8.30
2024-05-09T00:16:23.842Z,8.80
2024-05-09T00:17:23.962Z,6.00
2024-05-09T00:18:23.951Z,8.50
2024-05-09T00:19:23.949Z,8.00
2024-05-09T00:20:28.620Z,7.20
2024-05-09T00:21:23.849Z,9.30
2024-05-09T00:22:23.793Z,8.20
2024-05-09T00:23:23.837Z,7.90
2024-05-09T00:24:23.755Z,11.10
2024-05-09T00:25:23.748Z,11.10
2024-05-09T00:26:23.812Z,8.90
2024-05-09T00:27:23.766Z,9.00
2024-05-09T00:28:23.715Z,6.20
2024-05-09T00:29:23.844Z,7.10
2024-05-09T00:30:31.672Z,7.20
2024-05-09T00:31:23.724Z,13.00
2024-05-09T00:32:23.787Z,8.40
2024-05-09T00:33:23.930Z,11.40
2024-05-09T00:34:23.718Z,7.90
2024-05-09T00:35:23.828Z,8.00
2024-05-09T00:36:23.638Z,8.50
2024-05-09T00:37:23.630Z,6.70
2024-05-09T00:38:23.696Z,10.10
2024-05-09T00:39:23.650Z,9.40
2024-05-09T00:40:34.717Z,13.50
2024-05-09T00:41:23.683Z,8.60
2024-05-09T00:42:23.598Z,12.30
2024-05-09T00:43:23.565Z,8.10
2024-05-09T00:44:23.718Z,9.10
2024-05-09T00:45:23.556Z,8.20
2024-05-09T00:46:23.543Z,9.50
2024-05-09T00:47:23.742Z,7.80
2024-05-09T00:48:23.688Z,8.40
2024-05-09T00:49:23.579Z,14.20
2024-05-09T00:50:29.951Z,6.30
2024-05-09T00:51:23.554Z,11.30
2024-05-09T00:52:23.468Z,12.00
2024-05-09T00:53:23.534Z,11.30
2024-05-09T00:54:23.454Z,8.50
2024-05-09T00:55:23.435Z,7.20
2024-05-09T00:56:23.455Z,9.00
2024-05-09T00:57:23.471Z,10.60
2024-05-09T00:58:23.448Z,8.90
2024-05-09T00:59:23.424Z,9.10
2024-05-09T01:00:31.460Z,8.00
2024-05-09T01:01:23.464Z,9.40
2024-05-09T01:02:23.489Z,11.00
2024-05-09T01:03:23.585Z,9.60
2024-05-09T01:04:23.375Z,8.20
2024-05-09T01:05:23.391Z,8.20
2024-05-09T01:06:23.351Z,7.60
2024-05-09T01:07:23.330Z,10.20
2024-05-09T01:08:23.314Z,8.00
2024-05-09T01:09:23.322Z,9.60
2024-05-09T01:10:28.216Z,7.00
2024-05-09T01:11:23.342Z,8.30
2024-05-09T01:12:23.371Z,8.60
2024-05-09T01:13:23.275Z,8.90
2024-05-09T01:14:23.340Z,8.50
2024-05-09T01:15:23.244Z,10.00
2024-05-09T01:16:23.224Z,9.50
2024-05-09T01:17:23.317Z,10.50
2024-05-09T01:18:23.306Z,8.40
2024-05-09T01:19:23.327Z,9.30
2024-05-09T01:20:32.186Z,7.20
2024-05-09T01:21:23.360Z,8.00
2024-05-09T01:22:23.172Z,9.80
2024-05-09T01:23:23.198Z,8.70
2024-05-09T01:24:23.147Z,11.60
2024-05-09T01:25:23.127Z,8.80
2024-05-09T01:26:23.205Z,8.30
2024-05-09T01:27:23.139Z,9.60
2024-05-09T01:28:23.099Z,14.20
2024-05-09T01:29:23.236Z,8.10
2024-05-09T01:30:31.274Z,7.80
2024-05-09T01:31:23.071Z,11.50
2024-05-09T01:32:23.274Z,8.80
2024-05-09T01:33:23.295Z,8.30
2024-05-09T01:34:23.056Z,9.50
2024-05-09T01:35:23.139Z,11.60
2024-05-09T01:36:23.026Z,7.80
2024-05-09T01:37:23.092Z,9.10
2024-05-09T01:38:23.119Z,12.70
2024-05-09T01:39:23.013Z,11.90
2024-05-09T01:40:33.253Z,10.80
2024-05-09T01:41:22.997Z,8.90
2024-05-09T01:42:22.958Z,10.30
2024-05-09T01:43:22.956Z,11.30
2024-05-09T01:44:23.076Z,10.70
2024-05-09T01:45:22.946Z,12.20
2024-05-09T01:46:23.092Z,10.40
2024-05-09T01:47:23.179Z,10.70
2024-05-09T01:48:23.046Z,14.00
2024-05-09T01:49:23.013Z,8.50
2024-05-09T01:50:34.160Z,12.00
2024-05-09T01:51:22.935Z,9.90
2024-05-09T01:52:22.873Z,9.90
2024-05-09T01:53:23.013Z,12.30
2024-05-09T01:54:22.860Z,11.80
2024-05-09T01:55:22.827Z,12.00
2024-05-09T01:56:22.921Z,10.40
2024-05-09T01:57:22.845Z,9.00
2024-05-09T01:58:22.818Z,9.10
2024-05-09T01:59:22.866Z,8.50
2024-05-09T02:00:33.233Z,9.30
2024-05-09T02:01:22.775Z,9.00
2024-05-09T02:02:22.868Z,8.70
2024-05-09T02:03:22.980Z,14.90
2024-05-09T02:04:22.819Z,9.30
2024-05-09T02:05:22.955Z,11.40
2024-05-09T02:06:22.743Z,9.80
2024-05-09T02:07:22.721Z,10.50
2024-05-09T02:08:22.823Z,11.50
2024-05-09T02:09:22.727Z,9.70
2024-05-09T02:10:26.612Z,11.10
2024-05-09T02:11:22.757Z,11.40
2024-05-09T02:12:22.775Z,10.80
2024-05-09T02:13:22.650Z,8.50
2024-05-09T02:14:22.676Z,13.40
2024-05-09T02:15:22.644Z,9.40
2024-05-09T02:16:22.628Z,11.30
2024-05-09T02:17:22.879Z,10.80
2024-05-09T02:18:22.789Z,11.00
2024-05-09T02:19:22.825Z,8.70
2024-05-09T02:20:30.700Z,11.00
2024-05-09T02:21:22.602Z,11.10
2024-05-09T02:22:22.563Z,11.10
2024-05-09T02:23:22.597Z,10.10
2024-05-09T02:24:22.556Z,8.60
2024-05-09T02:25:22.530Z,13.20
2024-05-09T02:26:22.598Z,13.90
2024-05-09T02:27:22.523Z,13.40
2024-05-09T02:28:22.529Z,15.10
2024-05-09T02:29:22.607Z,10.10
2024-05-09T02:30:30.131Z,14.40
2024-05-09T02:31:22.464Z,12.00
2024-05-09T02:32:22.592Z,14.60
2024-05-09T02:33:22.671Z,15.70
2024-05-09T02:34:22.989Z,14.60
2024-05-09T02:35:22.461Z,15.20
2024-05-09T02:36:22.431Z,18.30
2024-05-09T02:37:22.406Z,15.60
2024-05-09T02:38:22.430Z,13.10
2024-05-09T02:39:22.403Z,16.90
2024-05-09T02:40:29.219Z,15.90
2024-05-09T02:41:22.437Z,17.40
2024-05-09T02:42:22.368Z,18.00
2024-05-09T02:43:22.368Z,14.70
2024-05-09T02:44:22.509Z,18.30
2024-05-09T02:45:22.345Z,17.10
2024-05-09T02:46:22.318Z,15.80
2024-05-09T02:47:22.432Z,15.20
2024-05-09T02:48:22.508Z,18.50
2024-05-09T02:49:22.480Z,14.80
2024-05-09T02:50:29.965Z,22.70
2024-05-09T02:51:22.286Z,17.20
2024-05-09T02:52:22.255Z,17.20
2024-05-09T02:53:22.284Z,15.10
2024-05-09T02:54:22.241Z,15.70
2024-05-09T02:55:22.218Z,15.50
2024-05-09T02:56:22.220Z,12.60
2024-05-09T02:57:22.182Z,12.20
2024-05-09T02:58:22.132Z,10.90
2024-05-09T02:59:22.319Z,14.20
2024-05-09T03:00:29.444Z,13.60
2024-05-09T03:01:22.192Z,12.60
2024-05-09T03:02:22.286Z,13.60
2024-05-09T03:03:22.428Z,14.20
2024-05-09T03:04:22.200Z,13.70
2024-05-09T03:05:22.187Z,14.20
2024-05-09T03:06:22.064Z,14.30
2024-05-09T03:07:22.044Z,14.50
2024-05-09T03:08:22.157Z,12.50
2024-05-09T03:09:22.070Z,14.10
2024-05-09T03:10:25.741Z,12.70
2024-05-09T03:11:22.055Z,14.80
2024-05-09T03:12:22.037Z,12.80
2024-05-09T03:13:21.992Z,16.30
2024-05-09T03:14:22.078Z,11.90
2024-05-09T03:15:21.985Z,13.50
2024-05-09T03:16:21.953Z,13.60
2024-05-09T03:17:22.115Z,13.10
2024-05-09T03:18:22.086Z,15.90
2024-05-09T03:19:22.193Z,14.20
2024-05-09T03:20:27.357Z,11.30
2024-05-09T03:21:21.945Z,14.20
2024-05-09T03:22:21.898Z,15.80
2024-05-09T03:23:21.941Z,13.40
2024-05-09T03:24:21.878Z,13.60
2024-05-09T03:25:21.886Z,14.90
2024-05-09T03:26:21.949Z,13.70
2024-05-09T03:27:21.866Z,15.40
2024-05-09T03:28:21.857Z,12.90
2024-05-09T03:29:21.865Z,11.80
2024-05-09T03:30:29.559Z,14.70
2024-05-09T03:31:21.833Z,10.40
2024-05-09T03:32:21.941Z,16.10
2024-05-09T03:33:22.292Z,10.40
2024-05-09T03:34:21.799Z,12.00
2024-05-09T03:35:21.895Z,9.60
2024-05-09T03:36:21.794Z,13.10
2024-05-09T03:37:21.757Z,10.50
2024-05-09T03:38:21.796Z,15.40
2024-05-09T03:39:21.739Z,15.00
2024-05-09T03:40:26.506Z,13.20
2024-05-09T03:41:21.781Z,11.60
2024-05-09T03:42:21.696Z,16.30
2024-05-09T03:43:21.671Z,14.10
2024-05-09T03:44:21.721Z,11.90
2024-05-09T03:45:21.712Z,12.30
2024-05-09T03:46:21.649Z,12.20
2024-05-09T03:47:21.898Z,11.20
2024-05-09T03:48:21.873Z,13.40
2024-05-09T03:49:22.061Z,12.40
2024-05-09T03:50:29.876Z,10.80
2024-05-09T03:51:21.620Z,11.10
2024-05-09T03:52:21.605Z,12.80
2024-05-09T03:53:21.616Z,10.50
2024-05-09T03:54:21.574Z,13.30
2024-05-09T03:55:21.569Z,14.40
2024-05-09T03:56:21.628Z,8.50
2024-05-09T03:57:21.579Z,12.20
2024-05-09T03:58:21.539Z,12.00
2024-05-09T03:59:21.594Z,11.60
2024-05-09T04:00:30.726Z,12.20
2024-05-09T04:01:21.535Z,14.00
2024-05-09T04:02:21.666Z,10.10
2024-05-09T04:03:21.656Z,13.90
2024-05-09T04:04:21.500Z,16.80
2024-05-09T04:05:21.490Z,13.50
2024-05-09T04:06:21.452Z,13.20
2024-05-09T04:07:21.448Z,15.60
2024-05-09T04:08:21.587Z,13.50
2024-05-09T04:09:21.477Z,15.00
2024-05-09T04:10:27.942Z,12.40
2024-05-09T04:11:21.487Z,11.00
2024-05-09T04:12:21.492Z,14.50
2024-05-09T04:13:21.381Z,14.40
2024-05-09T04:14:21.532Z,15.70
2024-05-09T04:15:21.475Z,15.60
2024-05-09T04:16:21.350Z,13.00
2024-05-09T04:17:21.432Z,12.50
2024-05-09T04:18:21.508Z,12.50
2024-05-09T04:19:21.612Z,10.30
2024-05-09T04:20:32.477Z,10.20
2024-05-09T04:21:21.360Z,13.30
2024-05-09T04:22:21.295Z,11.50
2024-05-09T04:23:21.321Z,11.00
2024-05-09T04:24:21.346Z,12.90
2024-05-09T04:25:21.361Z,12.10
2024-05-09T04:26:21.376Z,10.40
2024-05-09T04:27:21.409Z,13.80
2024-05-09T04:28:21.433Z,12.20
2024-05-09T04:29:21.258Z,9.70
2024-05-09T04:30:30.215Z,12.40
2024-05-09T04:31:21.209Z,14.50
2024-05-09T04:32:21.500Z,12.10
2024-05-09T04:33:21.500Z,11.60
2024-05-09T04:34:21.204Z,11.50
2024-05-09T04:35:21.280Z,11.20
2024-05-09T04:36:21.155Z,13.30
2024-05-09T04:37:21.207Z,19.80
2024-05-09T04:38:21.199Z,12.90
2024-05-09T04:39:21.153Z,12.70
2024-05-09T04:40:28.332Z,12.30
2024-05-09T04:41:21.128Z,11.70
2024-05-09T04:42:21.101Z,10.70
2024-05-09T04:43:21.108Z,15.20
2024-05-09T04:44:21.106Z,12.80
2024-05-09T04:45:21.088Z,15.20
2024-05-09T04:46:21.087Z,13.10
2024-05-09T04:47:21.172Z,12.10
2024-05-09T04:48:21.229Z,14.00
2024-05-09T04:49:21.097Z,14.40
2024-05-09T04:50:29.741Z,14.00
2024-05-09T04:51:21.025Z,15.70
2024-05-09T04:52:21.018Z,15.30
2024-05-09T04:53:21.071Z,14.10
2024-05-09T04:54:30.103Z,17.60
2024-05-09T04:55:20.986Z,16.10
2024-05-09T04:56:20.986Z,19.80
2024-05-09T04:57:20.958Z,15.60
2024-05-09T04:58:20.958Z,15.90
2024-05-09T04:59:20.992Z,13.40
2024-05-09T05:00:28.625Z,13.40
2024-05-09T05:01:20.963Z,16.00
2024-05-09T05:02:20.906Z,14.60
2024-05-09T05:03:21.178Z,15.30
2024-05-09T05:04:20.909Z,14.80
2024-05-09T05:05:20.899Z,13.80
2024-05-09T05:06:20.887Z,19.90
2024-05-09T05:07:20.846Z,14.10
2024-05-09T05:08:20.847Z,15.30
2024-05-09T05:09:20.840Z,14.00
2024-05-09T05:10:25.533Z,12.00
2024-05-09T05:11:20.873Z,14.10
2024-05-09T05:12:20.897Z,12.10
2024-05-09T05:13:22.163Z,13.80
2024-05-09T05:14:20.819Z,11.70
2024-05-09T05:15:20.793Z,12.40
2024-05-09T05:16:20.747Z,12.20
2024-05-09T05:17:20.866Z,12.30
2024-05-09T05:18:20.799Z,15.20
2024-05-09T05:19:20.839Z,12.00
2024-05-09T05:20:27.535Z,11.90
2024-05-09T05:21:20.861Z,13.80
2024-05-09T05:22:20.703Z,11.00
2024-05-09T05:23:20.766Z,14.10
2024-05-09T05:24:20.686Z,13.60
2024-05-09T05:25:20.658Z,11.60
2024-05-09T05:26:20.757Z,18.80
2024-05-09T05:27:20.671Z,16.80
2024-05-09T05:28:20.655Z,15.30
2024-05-09T05:29:21.008Z,14.50
2024-05-09T05:30:25.279Z,13.30
2024-05-09T05:31:20.708Z,13.80
2024-05-09T05:32:20.700Z,19.20
2024-05-09T05:33:20.946Z,16.90
2024-05-09T05:34:20.563Z,14.70
2024-05-09T05:35:20.652Z,15.00
2024-05-09T05:36:20.557Z,14.70
2024-05-09T05:37:20.544Z,13.10
2024-05-09T05:38:23.876Z,10.30
2024-05-09T05:39:20.572Z,13.30
2024-05-09T05:40:28.209Z,13.50
2024-05-09T05:41:20.579Z,11.30
2024-05-09T05:42:20.485Z,10.50
2024-05-09T05:43:20.512Z,11.50
2024-05-09T05:44:20.539Z,12.10
2024-05-09T05:45:20.589Z,11.50
2024-05-09T05:46:20.453Z,12.60
2024-05-09T05:47:20.530Z,10.10
2024-05-09T05:48:20.591Z,9.30
2024-05-09T05:49:20.552Z,11.50
2024-05-09T05:50:27.533Z,9.60
2024-05-09T05:51:20.516Z,12.00
2024-05-09T05:52:20.388Z,11.10
2024-05-09T05:53:20.402Z,12.30
2024-05-09T05:54:20.358Z,12.50
2024-05-09T05:55:20.386Z,11.70
2024-05-09T05:56:20.385Z,12.20
2024-05-09T05:57:20.388Z,9.00
2024-05-09T05:58:20.341Z,9.80
2024-05-09T05:59:20.348Z,10.50
2024-05-09T06:00:29.272Z,14.50
2024-05-09T06:01:20.388Z,10.00
2024-05-09T06:02:20.337Z,9.70
2024-05-09T06:03:20.330Z,8.20
2024-05-09T06:04:20.283Z,10.40
2024-05-09T06:05:20.312Z,9.60
2024-05-09T06:06:20.255Z,10.70
2024-05-09T06:07:20.241Z,8.30
2024-05-09T06:08:20.328Z,12.20
2024-05-09T06:09:20.241Z,9.40
2024-05-09T06:10:25.481Z,8.00
2024-05-09T06:11:20.361Z,11.00
2024-05-09T06:12:20.224Z,9.90
2024-05-09T06:13:20.198Z,8.30
2024-05-09T06:14:20.191Z,9.30
2024-05-09T06:15:20.198Z,9.50
2024-05-09T06:16:20.134Z,11.90
2024-05-09T06:17:20.192Z,10.60
2024-05-09T06:18:20.458Z,9.40
2024-05-09T06:19:20.257Z,9.90
2024-05-09T06:20:27.120Z,9.10
2024-05-09T06:21:20.172Z,8.70
2024-05-09T06:22:20.077Z,8.60
2024-05-09T06:23:20.101Z,9.80
2024-05-09T06:24:20.058Z,9.80
2024-05-09T06:25:20.042Z,8.80
2024-05-09T06:26:20.111Z,8.30
2024-05-09T06:27:20.071Z,8.10
2024-05-09T06:28:20.028Z,9.70
2024-05-09T06:29:20.065Z,12.90
2024-05-09T06:30:26.301Z,10.10
2024-05-09T06:31:20.006Z,10.70
2024-05-09T06:32:20.185Z,10.10
2024-05-09T06:33:20.107Z,9.20
2024-05-09T06:34:20.044Z,8.30
2024-05-09T06:35:19.976Z,9.80
2024-05-09T06:36:19.948Z,11.10
2024-05-09T06:37:19.933Z,8.90
2024-05-09T06:38:20.085Z,10.80
2024-05-09T06:39:19.948Z,8.30
2024-05-09T06:40:25.697Z,9.60
2024-05-09T06:41:19.926Z,7.80
2024-05-09T06:42:19.892Z,7.10
2024-05-09T06:43:20.174Z,6.90
2024-05-09T06:44:19.933Z,7.30
2024-05-09T06:45:19.867Z,6.90
2024-05-09T06:46:19.861Z,7.40
2024-05-09T06:47:19.890Z,9.20
2024-05-09T06:48:20.448Z,7.60
2024-05-09T06:49:20.021Z,7.90
2024-05-09T06:50:24.139Z,7.50
2024-05-09T06:51:19.861Z,7.10
2024-05-09T06:52:19.788Z,7.00
2024-05-09T06:53:19.804Z,6.40
2024-05-09T06:54:19.756Z,6.20
2024-05-09T06:55:19.752Z,7.40
2024-05-09T06:56:19.773Z,8.50
2024-05-09T06:57:19.761Z,8.00
2024-05-09T06:58:19.731Z,8.00
2024-05-09T06:59:19.745Z,10.20
2024-05-09T07:00:27.446Z,6.50
2024-05-09T07:01:19.708Z,7.10
2024-05-09T07:02:19.788Z,7.20
2024-05-09T07:03:20.180Z,8.90
2024-05-09T07:04:19.763Z,6.80
2024-05-09T07:05:19.775Z,9.40
2024-05-09T07:06:19.635Z,7.90
2024-05-09T07:07:19.621Z,10.40
2024-05-09T07:08:19.759Z,8.50
2024-05-09T07:09:19.650Z,10.30
2024-05-09T07:10:28.399Z,9.70
2024-05-09T07:11:19.781Z,11.30
2024-05-09T07:12:19.696Z,7.70
2024-05-09T07:13:19.574Z,10.80
2024-05-09T07:14:19.648Z,10.80
2024-05-09T07:15:19.608Z,10.10
2024-05-09T07:16:19.552Z,9.00
2024-05-09T07:17:19.688Z,13.20
2024-05-09T07:18:20.435Z,11.00
2024-05-09T07:19:19.694Z,10.70
2024-05-09T07:20:27.144Z,11.30
2024-05-09T07:21:19.773Z,9.60
2024-05-09T07:22:19.550Z,11.20
2024-05-09T07:23:19.686Z,9.50
2024-05-09T07:24:19.484Z,10.90
2024-05-09T07:25:19.472Z,11.00
2024-05-09T07:26:19.530Z,12.30
2024-05-09T07:27:19.459Z,10.50
2024-05-09T07:28:19.566Z,12.00
2024-05-09T07:29:19.449Z,11.00
2024-05-09T07:30:26.981Z,13.90
2024-05-09T07:31:19.413Z,10.30
2024-05-09T07:32:19.524Z,9.90
2024-05-09T07:33:20.828Z,14.00
2024-05-09T07:34:19.557Z,10.80
2024-05-09T07:35:19.432Z,10.80
2024-05-09T07:36:19.348Z,14.30
2024-05-09T07:37:19.356Z,11.40
2024-05-09T07:38:19.557Z,12.30
2024-05-09T07:39:19.362Z,11.70
2024-05-09T07:40:28.560Z,13.90
2024-05-09T07:41:19.314Z,11.70
2024-05-09T07:42:19.315Z,12.30
2024-05-09T07:43:19.293Z,12.60
2024-05-09T07:44:19.332Z,13.30
2024-05-09T07:47:14.512Z,14.00
2024-05-09T07:50:34.257Z,11.30
2024-05-09T07:53:32.456Z,14.00
2024-05-09T07:53:49.205Z,12.60
2024-05-09T07:54:00.437Z,14.90
2024-05-09T07:54:56.081Z,10.70
2024-05-09T07:55:56.462Z,13.00
2024-05-09T07:56:56.057Z,11.50
2024-05-09T07:57:55.911Z,13.70
2024-05-09T07:58:56.143Z,10.70
2024-05-09T07:59:55.840Z,12.90
2024-05-09T08:00:55.994Z,11.80
2024-05-09T08:01:55.875Z,12.20
2024-05-09T08:02:55.932Z,12.90
2024-05-09T08:03:56.156Z,11.90
2024-05-09T08:04:55.877Z,12.90
2024-05-09T08:05:55.789Z,10.80
2024-05-09T08:06:55.818Z,12.00
2024-05-09T08:07:55.787Z,13.80
2024-05-09T08:08:56.035Z,13.00
2024-05-09T08:09:55.767Z,9.50
2024-05-09T08:10:55.800Z,16.00
2024-05-09T08:11:55.772Z,11.40
2024-05-09T08:12:55.766Z,14.10
2024-05-09T08:13:55.691Z,13.20
2024-05-09T08:14:55.691Z,12.50
2024-05-09T08:15:55.784Z,13.10
2024-05-09T08:16:55.703Z,12.20
2024-05-09T08:17:55.794Z,13.30
2024-05-09T08:18:55.719Z,10.30
2024-05-09T08:19:55.624Z,11.70
2024-05-09T08:20:55.659Z,12.20
2024-05-09T08:21:55.686Z,10.10
2024-05-09T08:22:55.608Z,10.90
2024-05-09T08:23:55.585Z,10.50
2024-05-09T08:24:55.626Z,12.00
2024-05-09T08:25:55.576Z,10.90
2024-05-09T08:26:55.569Z,11.10
2024-05-09T08:27:55.671Z,8.80
2024-05-09T08:28:55.555Z,9.60
2024-05-09T08:29:55.567Z,9.40
2024-05-09T08:30:55.725Z,10.80
2024-05-09T08:31:55.543Z,11.10
2024-05-09T08:32:55.636Z,10.60
2024-05-09T08:33:55.667Z,9.10
2024-05-09T08:34:55.618Z,7.80
2024-05-09T08:35:55.484Z,7.60
2024-05-09T08:36:57.535Z,8.40
2024-05-09T08:37:55.555Z,10.10
2024-05-09T08:38:55.457Z,9.90
2024-05-09T08:39:55.542Z,8.50
2024-05-09T08:40:55.458Z,8.80
2024-05-09T08:41:55.411Z,8.70
2024-05-09T08:42:55.507Z,8.70
2024-05-09T08:43:55.397Z,7.20
2024-05-09T08:44:55.392Z,7.80
2024-05-09T08:45:55.451Z,6.60
2024-05-09T08:46:55.414Z,6.00
2024-05-09T08:47:55.478Z,8.00
2024-05-09T08:48:55.536Z,7.80
2024-05-09T08:49:55.394Z,5.80
2024-05-09T08:50:55.396Z,6.60
2024-05-09T08:51:55.373Z,7.40
2024-05-09T08:52:55.334Z,8.90
2024-05-09T08:53:55.317Z,7.20
2024-05-09T08:54:55.352Z,10.50
2024-05-09T08:55:55.311Z,7.50
2024-05-09T08:56:55.285Z,6.50
2024-05-09T08:57:55.365Z,9.60
2024-05-09T08:58:55.264Z,5.70
2024-05-09T08:59:55.247Z,5.30
2024-05-09T09:00:55.408Z,8.90
2024-05-09T09:01:55.406Z,7.10
2024-05-09T09:02:55.293Z,7.40
2024-05-09T09:03:55.414Z,7.30
2024-05-09T09:04:55.284Z,6.00
2024-05-09T09:05:55.190Z,8.70
2024-05-09T09:06:57.727Z,8.80
2024-05-09T09:07:55.183Z,6.70
2024-05-09T09:08:55.208Z,7.10
2024-05-09T09:09:55.251Z,6.90
2024-05-09T09:10:55.228Z,5.90
2024-05-09T09:11:55.212Z,5.60
2024-05-09T09:12:55.161Z,5.40
2024-05-09T09:13:55.151Z,6.60
2024-05-09T09:14:55.103Z,4.50
2024-05-09T09:15:55.190Z,6.70
2024-05-09T09:16:55.091Z,6.80
2024-05-09T09:17:55.271Z,4.00
2024-05-09T09:18:55.261Z,4.30
2024-05-09T09:19:55.195Z,8.10
2024-05-09T09:20:55.272Z,5.30
2024-05-09T09:21:55.145Z,5.70
2024-05-09T09:22:55.043Z,7.20
2024-05-09T09:23:55.028Z,6.60
2024-05-09T09:24:55.167Z,5.80
2024-05-09T09:25:55.023Z,6.50
2024-05-09T09:26:55.046Z,6.90
2024-05-09T09:27:55.161Z,5.70
2024-05-09T09:28:54.987Z,7.70
2024-05-09T09:29:55.005Z,8.10
2024-05-09T09:30:55.025Z,7.10
2024-05-09T09:31:54.978Z,6.90
2024-05-09T09:32:55.088Z,7.00
2024-05-09T09:33:55.250Z,5.50
2024-05-09T09:34:55.093Z,5.70
2024-05-09T09:35:54.938Z,5.60
2024-05-09T09:36:55.044Z,7.30
2024-05-09T09:37:54.921Z,6.20
2024-05-09T09:38:54.937Z,6.00
2024-05-09T09:39:54.994Z,6.30
2024-05-09T09:40:54.953Z,5.30
2024-05-09T09:41:54.889Z,4.60
2024-05-09T09:42:54.933Z,6.10
2024-05-09T09:43:54.857Z,4.40
2024-05-09T09:45:03.768Z,3.90
2024-05-09T09:45:55.018Z,4.80
2024-05-09T09:46:54.912Z,4.70
2024-05-09T09:47:54.919Z,6.10
2024-05-09T09:48:54.947Z,4.70
2024-05-09T09:49:54.890Z,5.10
2024-05-09T09:50:54.828Z,5.60
2024-05-09T09:51:54.909Z,6.60
2024-05-09T09:52:54.796Z,4.50
2024-05-09T09:53:54.819Z,4.30
2024-05-09T09:54:55.116Z,5.80
2024-05-09T09:55:54.787Z,5.40
2024-05-09T09:56:54.757Z,5.20
2024-05-09T09:57:54.965Z,4.20
2024-05-09T09:58:54.733Z,5.20
2024-05-09T09:59:54.758Z,3.30
2024-05-09T10:00:54.912Z,6.30
2024-05-09T10:01:54.798Z,4.40
2024-05-09T10:02:54.778Z,5.70
2024-05-09T10:03:54.921Z,4.80
2024-05-09T10:04:54.839Z,5.50
2024-05-09T10:05:54.807Z,5.20
2024-05-09T10:06:54.756Z,5.60
2024-05-09T10:07:54.657Z,5.40
2024-05-09T10:08:54.681Z,4.60
2024-05-09T10:09:54.706Z,5.10
2024-05-09T10:10:54.840Z,5.90
2024-05-09T10:11:59.881Z,4.90
2024-05-09T10:12:54.752Z,4.80
2024-05-09T10:13:54.607Z,5.70
2024-05-09T10:14:54.598Z,7.40
2024-05-09T10:15:54.885Z,5.00
2024-05-09T10:16:54.606Z,5.00
2024-05-09T10:17:54.868Z,4.80
2024-05-09T10:18:54.763Z,8.00
2024-05-09T10:19:54.695Z,6.60
2024-05-09T10:20:54.563Z,5.30
2024-05-09T10:21:54.613Z,5.60
2024-05-09T10:22:54.527Z,8.60
2024-05-09T10:23:54.527Z,5.80
2024-05-09T10:24:54.607Z,6.30
2024-05-09T10:25:54.513Z,8.10
2024-05-09T10:26:54.502Z,4.40
2024-05-09T10:27:54.600Z,5.00
2024-05-09T10:28:54.495Z,7.30
2024-05-09T10:29:54.484Z,6.20
2024-05-09T10:30:54.500Z,5.20
2024-05-09T10:31:54.519Z,5.30
2024-05-09T10:32:54.559Z,12.00
2024-05-09T10:33:54.841Z,5.80
2024-05-09T10:34:54.478Z,7.30
2024-05-09T10:35:54.433Z,5.20
2024-05-09T10:36:54.803Z,5.20
2024-05-09T10:37:54.426Z,6.90
2024-05-09T10:38:54.395Z,7.00
2024-05-09T10:39:54.479Z,7.60
2024-05-09T10:40:54.385Z,9.70
2024-05-09T10:41:54.390Z,7.20
2024-05-09T10:42:54.379Z,7.00
2024-05-09T10:43:54.351Z,10.40
2024-05-09T10:44:54.363Z,12.70
2024-05-09T10:45:54.385Z,8.20
2024-05-09T10:46:54.379Z,6.40
2024-05-09T10:47:54.542Z,6.80
2024-05-09T10:48:54.490Z,10.10
2024-05-09T10:49:54.353Z,6.60
2024-05-09T10:50:54.295Z,5.30
2024-05-09T10:51:54.356Z,6.70
2024-05-09T10:52:54.275Z,8.30
2024-05-09T10:53:54.292Z,6.30
2024-05-09T10:54:54.444Z,8.30
2024-05-09T10:55:54.248Z,4.80
2024-05-09T10:56:54.270Z,7.00
2024-05-09T10:57:54.440Z,6.20
2024-05-09T10:58:54.221Z,6.90
2024-05-09T10:59:54.258Z,8.80
2024-05-09T11:00:54.371Z,10.30
2024-05-09T11:01:54.266Z,7.20
2024-05-09T11:02:54.283Z,6.30
2024-05-09T11:03:54.423Z,6.30
2024-05-09T11:04:54.290Z,6.90
2024-05-09T11:05:54.232Z,7.70
2024-05-09T11:06:54.236Z,7.70
2024-05-09T11:07:54.173Z,8.80
2024-05-09T11:08:54.181Z,7.00
2024-05-09T11:09:54.309Z,8.60
2024-05-09T11:10:54.274Z,6.90
2024-05-09T11:11:54.236Z,8.60
2024-05-09T11:12:54.174Z,10.80
2024-05-09T11:13:54.132Z,9.80
2024-05-09T11:14:54.128Z,9.80
2024-05-09T11:15:54.276Z,8.30
2024-05-09T11:16:54.112Z,6.90
2024-05-09T11:17:54.183Z,9.40
2024-05-09T11:18:54.348Z,7.30
2024-05-09T11:19:54.098Z,7.20
2024-05-09T11:20:54.078Z,7.10
2024-05-09T11:21:54.133Z,7.20
2024-05-09T11:22:54.065Z,7.60
2024-05-09T11:23:54.107Z,8.40
2024-05-09T11:24:54.180Z,7.60
2024-05-09T11:25:54.045Z,7.10
2024-05-09T11:26:54.077Z,8.30
2024-05-09T11:27:54.196Z,6.50
2024-05-09T11:28:54.031Z,7.20
2024-05-09T11:29:54.014Z,5.60
2024-05-09T11:30:54.033Z,6.40
2024-05-09T11:31:54.056Z,7.60
2024-05-09T11:32:54.071Z,7.00
2024-05-09T11:33:54.075Z,6.10
2024-05-09T11:34:53.980Z,6.10
2024-05-09T11:35:53.990Z,6.90
2024-05-09T11:36:54.024Z,8.90
2024-05-09T11:37:53.975Z,5.60
2024-05-09T11:38:53.963Z,6.00
2024-05-09T11:39:54.052Z,9.00
2024-05-09T11:40:53.975Z,8.10
2024-05-09T11:41:53.932Z,8.60
2024-05-09T11:42:53.925Z,8.40
2024-05-09T11:43:53.936Z,4.90
2024-05-09T11:44:53.912Z,8.00
2024-05-09T11:45:53.943Z,8.70
2024-05-09T11:46:53.914Z,6.30
2024-05-09T11:47:54.074Z,6.00
2024-05-09T11:48:53.983Z,7.70
2024-05-09T11:49:54.010Z,5.90
2024-05-09T11:50:53.871Z,6.40
2024-05-09T11:51:53.889Z,4.90
2024-05-09T11:52:53.885Z,5.50
2024-05-09T11:53:53.848Z,6.70
2024-05-09T11:54:53.929Z,5.30
2024-05-09T11:55:53.858Z,5.80
2024-05-09T11:56:53.836Z,5.60
2024-05-09T11:57:53.875Z,7.20
2024-05-09T11:58:53.794Z,5.80
2024-05-09T11:59:53.793Z,6.70
2024-05-09T12:00:53.861Z,8.60
2024-05-09T12:01:53.975Z,7.90
2024-05-09T12:02:53.833Z,7.70
2024-05-09T12:03:54.018Z,5.30
2024-05-09T12:04:53.868Z,6.70
2024-05-09T12:05:53.848Z,7.60
2024-05-09T12:06:53.859Z,6.60
2024-05-09T12:07:53.734Z,6.40
2024-05-09T12:08:53.728Z,6.90
2024-05-09T12:09:53.869Z,6.60
2024-05-09T12:10:54.107Z,5.80
2024-05-09T12:11:53.777Z,5.30
2024-05-09T12:12:53.782Z,6.70
2024-05-09T12:13:53.720Z,5.20
2024-05-09T12:14:53.673Z,7.40
2024-05-09T12:15:53.757Z,7.30
2024-05-09T12:16:53.708Z,6.40
2024-05-09T12:17:53.790Z,6.10
2024-05-09T12:18:53.807Z,5.60
2024-05-09T12:19:53.651Z,6.00
2024-05-09T12:20:53.648Z,4.60
2024-05-09T12:21:53.727Z,6.40
2024-05-09T12:22:53.613Z,5.30
2024-05-09T12:23:53.618Z,5.30
2024-05-09T12:24:53.726Z,5.40
2024-05-09T12:25:53.610Z,5.90
2024-05-09T12:26:53.610Z,9.10
2024-05-09T12:27:53.637Z,6.70
2024-05-09T12:28:53.595Z,6.80
2024-05-09T12:29:53.590Z,5.70
2024-05-09T12:30:53.601Z,7.60
2024-05-09T12:31:53.608Z,5.90
2024-05-09T12:32:53.684Z,6.00
2024-05-09T12:33:53.620Z,6.20
2024-05-09T12:34:53.560Z,7.30
2024-05-09T12:35:53.528Z,7.20
2024-05-09T12:36:53.556Z,9.10
2024-05-09T12:37:53.519Z,5.60
2024-05-09T12:38:53.504Z,5.20
2024-05-09T12:39:53.567Z,6.20
2024-05-09T12:40:53.661Z,7.50
2024-05-09T12:41:53.476Z,4.90
2024-05-09T12:42:53.539Z,4.70
2024-05-09T12:43:53.461Z,6.10
2024-05-09T12:44:53.481Z,5.30
2024-05-09T12:45:53.551Z,5.80
2024-05-09T12:46:53.431Z,7.10
2024-05-09T12:47:53.560Z,4.70
2024-05-09T12:48:53.713Z,4.80
2024-05-09T12:49:53.432Z,6.70
2024-05-09T12:50:53.423Z,5.10
2024-05-09T12:51:53.439Z,5.10
2024-05-09T12:52:53.404Z,4.80
2024-05-09T12:53:53.392Z,5.80
2024-05-09T12:54:53.424Z,6.30
2024-05-09T12:55:57.150Z,4.80
2024-05-09T12:56:53.394Z,5.30
2024-05-09T12:57:53.404Z,6.30
2024-05-09T12:58:53.350Z,4.80
2024-05-09T12:59:53.340Z,4.70
2024-05-09T13:00:53.635Z,4.30
2024-05-09T13:01:53.396Z,3.80
2024-05-09T13:02:53.334Z,4.80
2024-05-09T13:03:53.694Z,5.80
2024-05-09T13:04:53.374Z,6.50
2024-05-09T13:05:53.379Z,8.50
2024-05-09T13:06:53.298Z,5.60
2024-05-09T13:07:53.275Z,4.20
2024-05-09T13:08:53.275Z,4.60
2024-05-09T13:09:53.311Z,5.60
2024-05-09T13:10:53.328Z,4.50